Time;durP1;ratioP1;P1;durP2;ratioP2;P2;SDS_P1;SDS_P2;PMS_P1;PMS_P2;Temp;Humidity;BMP_temperature;BMP_pressure;BME280_temperature;BME280_humidity;BME280_pressure;Samples;Min_cycle;Max_cycle;Signal;HPM_P1;HPM_P2
2022/11/15 00:02:24;;;;;;;4.43;3.00;;;11.00;83.80;;;13.98;51.16;97363.97;4911164;29;20047;-59
2022/11/15 00:05:10;;;;;;;3.60;2.73;;;10.90;83.70;;;13.98;51.00;97372.81;4909223;29;20047;-60
2022/11/15 00:07:57;;;;;;;4.22;3.05;;;10.90;83.60;;;13.98;50.95;97366.66;4907891;29;20055;-60
2022/11/15 00:10:55;;;;;;;3.45;2.60;;;10.90;84.40;;;13.93;51.13;97369.88;4911185;29;20067;-60
2022/11/15 00:13:42;;;;;;;5.90;3.73;;;10.80;83.40;;;13.90;50.85;97369.41;4909016;29;20051;-59
2022/11/15 00:16:28;;;;;;;5.37;3.10;;;10.80;83.90;;;13.85;50.87;97367.31;4906000;29;20385;-59
2022/11/15 00:19:14;;;;;;;6.33;2.73;;;10.70;84.10;;;13.81;51.04;97375.91;4910701;29;20055;-60
2022/11/15 00:22:01;;;;;;;4.00;3.60;;;10.70;84.40;;;13.75;50.97;97370.28;4908846;29;20051;-60
2022/11/15 00:24:48;;;;;;;3.77;2.67;;;10.70;84.20;;;13.72;50.98;97369.84;4909167;29;20381;-59
2022/11/15 00:27:34;;;;;;;3.60;2.47;;;10.70;84.10;;;13.66;50.93;97360.72;4912095;29;20239;-60
2022/11/15 00:30:22;;;;;;;7.07;2.83;;;10.60;84.20;;;13.62;50.99;97356.75;4911683;29;20051;-59
2022/11/15 00:33:09;;;;;;;4.53;2.70;;;10.50;84.40;;;13.61;51.03;97359.63;4908815;29;20051;-59
2022/11/15 00:36:14;;;;;;;4.20;2.40;;;10.50;84.40;;;13.56;51.38;97352.97;4912175;29;20051;-58
2022/11/15 00:39:04;;;;;;;4.13;2.45;;;10.50;84.10;;;13.54;51.14;97354.19;4910222;29;20050;-59
2022/11/15 00:41:51;;;;;;;3.67;2.60;;;10.40;84.30;;;13.49;51.38;97348.56;4913926;29;20345;-60
2022/11/15 00:44:37;;;;;;;3.80;2.73;;;10.40;84.60;;;13.45;51.05;97349.97;4911635;29;20047;-59
2022/11/15 00:47:24;;;;;;;3.57;2.63;;;10.40;84.50;;;13.38;51.56;97350.72;4910450;29;20051;-59
2022/11/15 00:50:11;;;;;;;4.87;2.90;;;10.40;84.50;;;13.34;51.42;97346.75;4912829;29;20071;-59
2022/11/15 00:53:01;;;;;;;3.10;2.27;;;10.40;84.30;;;13.34;51.49;97346.75;4911804;29;20059;-59
2022/11/15 00:55:47;;;;;;;5.23;2.20;;;10.40;84.10;;;13.31;51.58;97341.75;4908344;29;20057;-59
2022/11/15 00:58:34;;;;;;;4.60;2.97;;;10.50;84.10;;;13.31;51.38;97341.75;4913612;29;20054;-59
2022/11/15 01:01:21;;;;;;;3.28;2.28;;;10.40;83.90;;;13.33;51.49;97339.72;4911467;29;20050;-59
2022/11/15 01:04:07;;;;;;;4.27;2.70;;;10.40;84.00;;;13.32;51.53;97334.59;4909211;29;20070;-59
2022/11/15 01:06:54;;;;;;;5.47;3.10;;;10.40;83.50;;;13.30;51.20;97334.78;4913562;29;20153;-61
2022/11/15 01:09:40;;;;;;;4.03;2.43;;;10.30;83.80;;;13.27;51.64;97334.28;4911742;29;20047;-60
2022/11/15 01:12:27;;;;;;;2.90;2.23;;;10.20;84.20;;;13.24;51.59;97329.28;4908886;29;20141;-61
2022/11/15 01:15:14;;;;;;;3.33;2.30;;;10.20;84.40;;;13.20;51.38;97324.34;4911748;29;20055;-60
2022/11/15 01:18:00;;;;;;;2.80;2.33;;;10.10;84.30;;;13.14;51.57;97330.44;4911176;29;20276;-60
2022/11/15 01:20:47;;;;;;;5.47;2.53;;;10.00;84.70;;;13.07;51.68;97324.16;4909458;29;20059;-59
2022/11/15 01:23:34;;;;;;;3.90;2.37;;;10.00;85.30;;;13.06;51.75;97325.16;4911615;29;20047;-61
2022/11/15 01:26:21;;;;;;;4.57;2.37;;;10.00;85.60;;;13.07;51.79;97315.31;4911426;29;20051;-61
2022/11/15 01:29:07;;;;;;;5.50;2.77;;;10.00;85.60;;;13.09;51.50;97315.97;4908284;29;20357;-60
2022/11/15 01:31:54;;;;;;;4.77;2.90;;;9.90;85.50;;;13.06;51.58;97314.47;4912601;29;20055;-60
2022/11/15 01:34:40;;;;;;;3.83;2.43;;;10.00;85.80;;;13.06;51.63;97311.78;4922359;29;20070;-60
2022/11/15 01:37:27;;;;;;;2.97;1.93;;;10.00;85.70;;;13.06;51.60;97314.47;4907942;29;20047;-60
2022/11/15 01:40:15;;;;;;;3.60;2.63;;;10.00;85.50;;;13.02;51.69;97310.50;4909636;29;20046;-60
2022/11/15 01:43:36;;;;;;;4.83;2.83;;;9.90;86.10;;;13.02;51.86;97313.19;4909896;29;20059;-60
2022/11/15 01:46:35;;;;;;;5.03;2.20;;;10.00;85.80;;;13.06;51.98;97310.97;4911642;29;20051;-60
2022/11/15 01:49:23;;;;;;;4.10;2.27;;;10.00;85.80;;;13.04;51.83;97302.31;4909186;29;20067;-60
2022/11/15 01:52:17;;;;;;;4.17;2.83;;;10.00;85.70;;;13.06;51.84;97301.09;4926101;29;20253;-60
2022/11/15 01:55:14;;;;;;;4.87;2.57;;;10.00;85.10;;;13.05;51.99;97309.34;4909963;29;20054;-60
2022/11/15 01:58:04;;;;;;;5.83;2.77;;;10.00;85.20;;;13.06;51.73;97302.97;4908164;29;20042;-58
2022/11/15 02:00:51;;;;;;;5.20;2.53;;;10.10;85.50;;;13.07;51.71;97292.09;4911819;29;20353;-58
2022/11/15 02:03:58;;;;;;;7.73;2.90;;;10.10;84.80;;;13.03;51.79;97287.28;4909872;29;20051;-59
2022/11/15 02:06:48;;;;;;;4.13;2.80;;;10.10;85.20;;;13.06;51.96;97290.41;4907034;29;20047;-59
2022/11/15 02:09:37;;;;;;;4.50;2.37;;;10.20;85.00;;;13.07;51.70;97284.06;4910337;29;20058;-58
2022/11/15 02:12:23;;;;;;;3.80;2.37;;;10.20;85.00;;;13.07;51.87;97288.59;4908084;29;20050;-59
2022/11/15 02:15:11;;;;;;;5.17;2.40;;;10.20;84.70;;;13.07;51.52;97294.75;4912656;29;20050;-59
2022/11/15 02:18:07;;;;;;;4.40;2.40;;;10.20;84.60;;;13.07;51.79;97283.25;4909939;29;20395;-59
2022/11/15 02:21:13;;;;;;;5.00;2.60;;;10.20;84.50;;;13.10;52.15;97291.69;4908330;29;20047;-59
2022/11/15 02:24:19;;;;;;;3.67;2.20;;;10.20;84.50;;;13.13;51.84;97279.84;4910047;29;20051;-59
2022/11/15 02:27:29;;;;;;;5.30;2.33;;;10.20;84.50;;;13.16;52.06;97271.41;4907396;29;20111;-60
2022/11/15 02:30:31;;;;;;;6.20;2.37;;;10.30;84.50;;;13.23;52.06;97268.84;4907368;29;20239;-59
2022/11/15 02:33:55;;;;;;;4.47;2.50;;;10.30;84.30;;;13.23;51.77;97264.31;4911101;29;20047;-60
2022/11/15 02:37:11;;;;;;;5.63;2.13;;;10.30;83.80;;;13.23;51.76;97263.50;4906768;29;20051;-58
2022/11/15 02:40:52;;;;;;;3.70;2.20;;;10.30;84.40;;;13.22;51.60;97256.47;4907231;29;20066;-59
2022/11/15 02:43:58;;;;;;;5.07;2.50;;;10.20;83.90;;;13.27;51.57;97249.56;4906607;29;20336;-59
2022/11/15 02:50:07;;;;;;;4.20;2.70;;;10.20;84.20;;;13.27;51.38;97252.25;4910929;29;20062;-59
2022/11/15 02:52:54;;;;;;;3.37;2.53;;;10.20;84.90;;;13.30;51.35;97251.06;4907774;29;20369;-59
2022/11/15 02:55:50;;;;;;;4.23;2.40;;;10.20;84.90;;;13.30;51.49;97249.22;4911752;29;20059;-59
2022/11/15 02:59:27;;;;;;;4.70;2.57;;;10.20;85.00;;;13.28;51.81;97245.03;4910144;29;20373;-59
2022/11/15 03:02:46;;;;;;;3.93;2.37;;;10.10;85.20;;;13.29;51.41;97244.84;4910412;29;20051;-60
2022/11/15 03:06:14;;;;;;;4.23;2.70;;;10.10;85.30;;;13.23;51.51;97234.91;4907477;29;20054;-59
2022/11/15 03:09:13;;;;;;;3.37;2.90;;;10.10;85.10;;;13.20;51.47;97237.97;4909925;29;20063;-59
2022/11/15 03:12:37;;;;;;;4.13;2.27;;;10.00;85.90;;;13.15;51.50;97232.38;4907280;29;20055;-60
2022/11/15 03:15:32;;;;;;;3.53;3.03;;;10.00;85.90;;;13.17;51.66;97227.66;4895593;29;20250;-57
2022/11/15 03:18:43;;;;;;;3.97;2.07;;;10.00;85.80;;;13.15;51.74;97216.31;4906859;29;20066;-59
2022/11/15 03:21:32;;;;;;;4.30;2.50;;;10.00;85.70;;;13.19;51.70;97213.06;4908744;29;20047;-59
2022/11/15 03:24:21;;;;;;;4.67;2.10;;;10.10;85.70;;;13.15;51.11;97219.81;4906623;29;20051;-59
2022/11/15 03:27:18;;;;;;;3.67;2.00;;;10.10;85.40;;;13.14;51.34;97220.00;4909492;29;20051;-59
2022/11/15 03:30:08;;;;;;;3.10;2.40;;;10.00;85.10;;;13.16;51.24;97209.94;4909369;29;20054;-59
2022/11/15 03:32:58;;;;;;;3.97;2.63;;;10.00;85.10;;;13.18;51.71;97211.44;4906771;29;20054;-59
2022/11/15 03:35:47;;;;;;;3.03;1.90;;;10.10;85.10;;;13.21;51.53;97212.91;4909986;29;20193;-58
2022/11/15 03:38:35;;;;;;;3.53;2.00;;;10.10;85.00;;;13.27;51.65;97211.31;4908252;29;20051;-59
2022/11/15 03:41:48;;;;;;;4.07;2.10;;;10.20;84.70;;;13.32;51.51;97206.28;4906767;29;20047;-59
2022/11/15 03:44:51;;;;;;;2.70;2.00;;;10.30;84.10;;;13.39;51.63;97207.16;4908395;29;20373;-58
2022/11/15 03:47:59;;;;;;;3.63;1.97;;;10.40;83.80;;;13.40;51.32;97195.44;4906395;29;20227;-58
2022/11/15 03:50:47;;;;;;;3.30;2.10;;;10.30;83.00;;;13.44;50.71;97196.72;4909217;29;20246;-59
2022/11/15 03:53:34;;;;;;;3.63;2.00;;;10.40;83.40;;;13.47;51.17;97196.31;4906991;29;20047;-59
2022/11/15 03:56:20;;;;;;;3.40;1.77;;;10.40;83.50;;;13.54;50.98;97194.56;4924351;29;20251;-59
2022/11/15 03:59:07;;;;;;;2.37;1.67;;;10.50;83.00;;;13.61;50.65;97196.47;4911080;29;20373;-58
2022/11/15 04:01:54;;;;;;;2.90;1.73;;;10.50;82.80;;;13.63;50.76;97192.59;4912090;29;20066;-59
2022/11/15 04:04:41;;;;;;;3.13;1.80;;;10.60;82.60;;;13.69;50.61;97199.03;4915303;29;20350;-59
2022/11/15 04:07:27;;;;;;;4.23;1.93;;;10.60;82.30;;;13.66;50.24;97199.41;4913347;29;20046;-59
2022/11/15 04:10:15;;;;;;;2.47;1.67;;;10.60;81.40;;;13.62;50.77;97206.16;4911971;29;20064;-59
2022/11/15 04:13:03;;;;;;;2.10;1.60;;;10.60;81.60;;;13.62;50.66;97206.16;4927534;29;20055;-59
2022/11/15 04:15:49;;;;;;;3.23;2.03;;;10.60;81.60;;;13.63;50.59;97205.97;4909508;29;20250;-59
2022/11/15 04:18:36;;;;;;;3.03;1.80;;;10.60;81.50;;;13.65;50.53;97206.59;4911398;29;20051;-60
2022/11/15 04:24:28;;;;;;;2.63;1.80;;;10.70;81.60;;;13.70;50.59;97198.81;4912261;29;20102;-60
2022/11/15 04:27:14;;;;;;;6.23;1.90;;;10.70;81.70;;;13.71;50.51;97199.66;4910180;29;20047;-60
2022/11/15 04:30:01;;;;;;;3.97;2.40;;;10.60;81.40;;;13.73;50.37;97192.28;4913820;29;20301;-60
2022/11/15 04:32:47;;;;;;;3.80;2.00;;;10.70;82.30;;;13.69;50.53;97182.97;4911766;29;20066;-60
2022/11/15 04:35:34;;;;;;;4.67;2.50;;;10.70;81.40;;;13.68;50.29;97187.47;4909820;29;20381;-60
2022/11/15 04:38:21;;;;;;;5.03;1.73;;;10.70;81.20;;;13.67;50.27;97182.34;4912888;29;20469;-59
2022/11/15 04:41:07;;;;;;;3.40;1.73;;;10.70;80.70;;;13.63;50.28;97171.19;4912169;29;20051;-59
2022/11/15 04:43:54;;;;;;;6.73;2.60;;;10.70;80.90;;;13.63;50.45;97183.72;4908174;29;20051;-60
2022/11/15 04:46:41;;;;;;;2.80;1.97;;;10.70;80.60;;;13.62;50.27;97180.22;4912828;29;20051;-60
2022/11/15 04:49:28;;;;;;;4.30;2.00;;;10.80;80.10;;;13.56;50.30;97183.69;4910888;29;20054;-60
2022/11/15 04:52:15;;;;;;;2.75;1.67;;;10.70;80.30;;;13.58;50.46;97171.75;4910000;29;20055;-59
2022/11/15 04:55:01;;;;;;;4.13;2.10;;;10.70;80.00;;;13.59;50.62;97177.97;4912896;29;20051;-60
2022/11/15 04:58:01;;;;;;;2.87;1.90;;;10.70;80.20;;;13.62;50.33;97168.72;4911937;29;20055;-60
2022/11/15 05:00:48;;;;;;;4.90;2.07;;;10.70;80.20;;;13.61;50.22;97173.25;4913450;29;20255;-60
2022/11/15 05:06:40;;;;;;;5.13;2.87;;;10.70;80.70;;;13.69;50.39;97167.75;4909937;29;20109;-59
2022/11/15 05:09:27;;;;;;;3.10;2.00;;;10.70;80.50;;;13.66;50.00;97162.78;4913366;29;20235;-59
2022/11/15 05:12:13;;;;;;;4.27;1.83;;;10.60;80.50;;;13.64;50.08;97158.66;4911604;29;20376;-59
2022/11/15 05:15:00;;;;;;;2.73;2.10;;;10.50;80.50;;;13.65;49.96;97161.13;4909620;29;20388;-59
2022/11/15 05:17:47;;;;;;;5.13;2.40;;;10.60;80.80;;;13.63;49.90;97163.19;4913581;29;20051;-59
2022/11/15 05:20:33;;;;;;;5.10;2.40;;;10.50;80.70;;;13.67;50.07;97155.59;4911520;29;20227;-59
2022/11/15 05:23:20;;;;;;;3.83;2.20;;;10.60;80.70;;;13.69;49.83;97150.88;4909421;29;20051;-59
2022/11/15 05:26:08;;;;;;;2.87;2.47;;;10.60;80.60;;;13.73;49.71;97150.28;4913384;29;20059;-59
2022/11/15 05:28:57;;;;;;;3.10;2.23;;;10.60;80.30;;;13.73;49.81;97152.97;4908088;29;20055;-60
2022/11/15 05:31:44;;;;;;;3.10;2.40;;;10.60;81.20;;;13.73;49.92;97150.28;4912876;29;20050;-61
2022/11/15 05:34:31;;;;;;;3.13;2.10;;;10.60;80.10;;;13.74;49.77;97141.22;4910338;29;20365;-59
2022/11/15 05:37:18;;;;;;;3.73;2.37;;;10.60;80.10;;;13.76;49.60;97135.69;4910023;29;20099;-60
2022/11/15 05:40:06;;;;;;;4.17;2.77;;;10.70;80.10;;;13.77;49.74;97146.19;4909169;29;20099;-60
2022/11/15 05:42:52;;;;;;;2.37;1.70;;;10.70;79.80;;;13.74;49.67;97138.56;4912007;29;20054;-60
2022/11/15 05:45:39;;;;;;;3.10;1.90;;;10.70;79.90;;;13.74;49.93;97138.56;4908319;29;20055;-59
2022/11/15 05:48:26;;;;;;;3.33;2.07;;;10.70;80.10;;;13.77;49.52;97135.50;4913702;29;20063;-60
2022/11/15 05:51:16;;;;;;;3.33;2.03;;;10.70;80.00;;;13.74;49.82;97127.03;4911430;29;20046;-60
2022/11/15 05:54:03;;;;;;;10.87;3.40;;;10.70;79.90;;;13.68;49.86;97135.84;4908308;29;20074;-60
2022/11/15 05:56:50;;;;;;;5.37;3.23;;;10.70;79.80;;;13.61;49.87;97132.28;4911972;29;20044;-60
2022/11/15 05:59:40;;;;;;;3.13;1.77;;;10.70;79.70;;;13.62;49.95;97132.09;4911069;29;20043;-60
2022/11/15 06:02:26;;;;;;;5.17;2.07;;;10.80;79.70;;;13.64;50.01;97132.72;4909435;29;20345;-60
2022/11/15 06:05:13;;;;;;;3.83;2.47;;;10.80;79.50;;;13.67;50.10;97134.19;4912281;29;20055;-60
2022/11/15 06:08:00;;;;;;;5.27;2.00;;;10.70;79.70;;;13.65;49.82;97137.06;4911100;29;20063;-60
2022/11/15 06:10:46;;;;;;;4.90;2.17;;;10.70;79.80;;;13.66;49.96;97133.34;4908953;29;20274;-60
2022/11/15 06:13:34;;;;;;;2.40;1.60;;;10.70;79.70;;;13.67;50.06;97140.38;4912427;29;20051;-60
2022/11/15 06:16:21;;;;;;;4.47;2.13;;;10.70;79.80;;;13.70;49.79;97133.78;4910544;29;20055;-60
2022/11/15 06:19:08;;;;;;;5.60;2.10;;;10.70;79.70;;;13.71;49.81;97141.63;4909195;29;20054;-60
2022/11/15 06:21:54;;;;;;;3.17;2.00;;;10.70;79.70;;;13.74;49.62;97143.09;4911764;29;20047;-60
2022/11/15 06:24:40;;;;;;;3.17;1.77;;;10.70;79.60;;;13.75;49.84;97147.44;4910247;29;20047;-60
2022/11/15 06:27:27;;;;;;;3.63;1.87;;;10.60;79.70;;;13.74;49.79;97151.94;4908208;29;20274;-60
2022/11/15 06:30:14;;;;;;;4.47;2.17;;;10.60;80.90;;;13.74;49.85;97154.59;4910980;29;20055;-60
2022/11/15 06:33:03;;;;;;;7.80;2.20;;;10.60;80.20;;;13.75;49.71;97144.75;4909572;29;20262;-60
2022/11/15 06:35:50;;;;;;;3.00;2.10;;;10.60;80.30;;;13.78;49.66;97139.84;4911741;29;20369;-60
2022/11/15 06:38:36;;;;;;;4.67;2.80;;;10.60;80.40;;;13.76;49.91;97146.41;4909932;29;20051;-59
2022/11/15 06:41:23;;;;;;;4.53;2.53;;;10.60;80.60;;;13.77;49.76;97151.56;4909201;29;20063;-61
2022/11/15 06:44:09;;;;;;;3.80;2.37;;;10.60;80.70;;;13.72;49.82;97153.16;4911569;29;20056;-60
2022/11/15 06:46:56;;;;;;;6.33;2.43;;;10.50;81.10;;;13.68;50.13;97151.88;4910837;29;20047;-60
2022/11/15 06:49:43;;;;;;;4.70;2.20;;;10.50;81.50;;;13.66;49.97;97153.94;4908428;29;20074;-60
2022/11/15 06:52:32;;;;;;;3.73;2.00;;;10.50;81.70;;;13.64;50.08;97158.66;4912931;29;20243;-60
2022/11/15 06:55:19;;;;;;;4.80;3.47;;;10.40;81.70;;;13.62;50.30;97161.50;4909099;29;20051;-62
2022/11/15 06:58:05;;;;;;;5.20;3.10;;;10.40;81.80;;;13.61;50.13;97157.19;4909259;29;20054;-61
2022/11/15 07:00:52;;;;;;;6.37;2.60;;;10.40;82.00;;;13.64;50.51;97159.47;4910376;29;20063;-61
2022/11/15 07:03:42;;;;;;;4.73;2.90;;;10.50;82.10;;;13.64;50.24;97158.66;4910390;29;20051;-60
2022/11/15 07:06:29;;;;;;;4.67;2.83;;;10.40;82.20;;;13.61;50.22;97165.22;4908056;29;20047;-60
2022/11/15 07:09:15;;;;;;;5.50;3.00;;;10.40;82.30;;;13.64;50.39;97161.31;4911987;29;20055;-61
2022/11/15 07:12:02;;;;;;;6.43;3.17;;;10.40;82.50;;;13.67;50.52;97168.97;4909899;29;20050;-60
2022/11/15 07:14:53;;;;;;;5.33;3.07;;;10.50;82.80;;;13.69;50.52;97166.94;4907485;29;20058;-60
2022/11/15 07:17:39;;;;;;;6.27;2.87;;;10.50;82.80;;;13.71;50.31;97175.59;4910559;29;20047;-60
2022/11/15 07:20:26;;;;;;;8.90;3.27;;;10.50;82.80;;;13.76;50.57;97165.97;4909815;29;20054;-60
2022/11/15 07:23:13;;;;;;;6.53;3.07;;;10.60;82.70;;;13.82;50.37;97167.00;4907805;29;20394;-60
2022/11/15 07:26:00;;;;;;;4.20;2.30;;;10.70;82.60;;;13.86;50.51;97172.81;4911604;29;20047;-60
2022/11/15 07:28:46;;;;;;;6.47;1.83;;;10.70;82.60;;;13.88;50.42;97166.28;4907827;29;20054;-59
2022/11/15 07:31:33;;;;;;;3.47;2.28;;;10.80;82.40;;;13.94;50.47;97165.50;4906695;29;20070;-60
2022/11/15 07:34:19;;;;;;;3.07;2.13;;;10.90;82.20;;;14.00;50.44;97171.91;4910686;29;20051;-59
2022/11/15 07:37:06;;;;;;;3.53;2.20;;;11.00;81.80;;;14.05;50.51;97163.28;4909320;29;20051;-60
2022/11/15 07:39:53;;;;;;;3.63;2.08;;;11.10;81.60;;;14.08;50.47;97160.22;4907392;29;20062;-60
2022/11/15 07:42:53;;;;;;;3.30;2.20;;;11.10;81.20;;;14.10;50.54;97158.19;4911178;29;20063;-60
2022/11/15 07:45:45;;;;;;;3.58;2.33;;;11.20;81.20;;;14.17;50.58;97156.38;4906214;29;20050;-60
2022/11/15 07:48:32;;;;;;;3.88;2.20;;;11.20;81.00;;;14.20;50.42;97153.31;4912007;29;20055;-59
2022/11/15 07:51:29;;;;;;;5.13;3.00;;;11.30;81.20;;;14.25;50.23;97145.53;4909655;29;20219;-60
2022/11/15 07:54:16;;;;;;;4.38;2.70;;;11.30;80.90;;;14.29;50.16;97154.81;4907297;29;20070;-60
2022/11/15 07:57:03;;;;;;;3.83;2.90;;;11.30;80.60;;;14.30;50.16;97152.94;4910793;29;20067;-60
2022/11/15 07:59:53;;;;;;;6.38;3.15;;;11.30;80.60;;;14.33;50.27;97144.53;4909580;29;20117;-60
2022/11/15 08:02:40;;;;;;;5.28;2.60;;;11.30;80.70;;;14.35;50.26;97148.66;4907716;29;20055;-61
2022/11/15 08:05:29;;;;;;;3.72;2.33;;;11.40;80.70;;;14.40;50.39;97144.56;4910649;29;20071;-63
2022/11/15 08:08:15;;;;;;;4.00;2.20;;;11.40;80.60;;;14.36;50.25;97142.31;4908264;29;20047;-63
2022/11/15 08:11:02;;;;;;;6.23;2.43;;;11.50;80.10;;;14.39;50.30;97141.06;4906356;29;20063;-63
2022/11/15 08:13:49;;;;;;;4.57;2.83;;;11.50;80.00;;;14.42;50.26;97143.34;4910539;29;20246;-63
2022/11/15 08:16:36;;;;;;;7.10;2.50;;;11.60;79.90;;;14.42;50.25;97139.84;4909502;29;20059;-63
2022/11/15 08:19:22;;;;;;;6.22;3.65;;;11.60;79.90;;;14.42;50.44;97132.63;4907502;29;20051;-61
2022/11/15 08:22:09;;;;;;;5.07;3.00;;;11.60;79.80;;;14.48;50.36;97126.50;4911200;29;20242;-61
2022/11/15 08:24:55;;;;;;;7.57;2.40;;;11.70;80.30;;;14.56;50.48;97129.03;4908651;29;20062;-61
2022/11/15 08:27:42;;;;;;;4.38;2.42;;;11.70;80.40;;;14.65;50.20;97134.22;4906002;29;20055;-61
2022/11/15 08:30:29;;;;;;;7.65;2.78;;;11.80;80.20;;;14.69;50.08;97127.44;4909808;29;20377;-61
2022/11/15 08:33:16;;;;;;;3.80;2.70;;;11.80;80.10;;;14.77;50.14;97129.94;4907257;29;20055;-61
2022/11/15 08:36:03;;;;;;;4.40;2.17;;;11.90;79.90;;;14.87;49.99;97124.19;4905969;29;20055;-60
2022/11/15 08:38:49;;;;;;;5.07;1.80;;;12.00;79.80;;;14.95;49.96;97116.00;4909740;29;20188;-61
2022/11/15 08:41:37;;;;;;;3.78;2.35;;;12.10;79.70;;;14.99;49.83;97119.91;4906766;29;20052;-61
2022/11/15 08:44:24;;;;;;;3.35;1.90;;;12.10;79.30;;;15.02;49.82;97113.31;4906337;29;20051;-61
2022/11/15 08:47:14;;;;;;;2.92;1.70;;;12.20;79.00;;;15.09;49.72;97111.50;4912722;29;20067;-61
2022/11/15 08:50:01;;;;;;;3.13;1.88;;;12.30;78.90;;;15.15;49.73;97108.00;4911085;29;20235;-61
2022/11/15 08:52:48;;;;;;;4.03;2.13;;;12.30;78.80;;;15.21;49.66;97104.50;4914364;29;20063;-61
2022/11/15 08:55:37;;;;;;;3.55;1.95;;;12.40;78.50;;;15.28;49.68;97104.50;4911210;29;20074;-61
2022/11/15 08:58:24;;;;;;;6.03;2.00;;;12.50;78.60;;;15.33;49.70;97104.72;4909625;29;20059;-61
2022/11/15 09:01:19;;;;;;;4.43;2.20;;;12.50;78.60;;;15.38;49.72;97106.78;4914175;29;20047;-61
2022/11/15 09:04:06;;;;;;;3.88;2.38;;;12.60;78.30;;;15.42;49.63;97103.50;4911138;29;20051;-61
2022/11/15 09:06:53;;;;;;;3.58;2.42;;;12.60;78.50;;;15.50;49.88;97102.47;4910154;29;20050;-61
2022/11/15 09:09:40;;;;;;;2.20;1.70;;;12.70;78.70;;;15.59;49.59;97101.22;4913862;29;20055;-61
2022/11/15 09:12:26;;;;;;;3.17;1.73;;;12.70;78.70;;;15.68;49.44;97099.16;4910802;29;20063;-62
2022/11/15 09:15:14;;;;;;;3.17;2.15;;;12.80;78.20;;;15.74;49.22;97099.19;4910043;29;20070;-62
2022/11/15 09:18:01;;;;;;;3.55;1.70;;;12.90;77.80;;;15.82;49.03;97094.63;4913661;29;20067;-61
2022/11/15 09:20:48;;;;;;;4.97;1.85;;;13.00;77.50;;;15.88;48.92;97091.16;4911103;29;20047;-62
2022/11/15 09:23:34;;;;;;;4.25;2.50;;;13.00;76.90;;;15.91;48.93;97098.75;4909584;29;20051;-62
2022/11/15 09:26:20;;;;;;;2.95;1.50;;;13.10;76.80;;;15.98;48.86;97101.44;4913389;29;20047;-61
2022/11/15 09:29:07;;;;;;;3.65;2.00;;;13.10;76.80;;;16.02;48.55;97092.75;4911627;29;20051;-62
2022/11/15 09:31:54;;;;;;;4.55;2.00;;;13.20;76.60;;;16.05;48.66;97089.66;4910087;29;20373;-61
2022/11/15 09:34:40;;;;;;;3.70;2.47;;;13.20;76.10;;;16.10;48.29;97091.72;4912798;29;20051;-62
2022/11/15 09:37:27;;;;;;;3.80;2.13;;;13.30;75.70;;;16.15;48.12;97086.56;4911753;29;20058;-62
2022/11/15 09:40:17;;;;;;;7.15;2.72;;;13.30;75.40;;;16.17;48.12;97081.78;4909249;29;20055;-61
2022/11/15 09:43:41;;;;;;;3.03;1.80;;;13.30;75.30;;;16.21;48.24;97076.84;4912979;29;20380;-60
2022/11/15 09:46:50;;;;;;;2.20;1.65;;;13.40;73.80;;;16.24;48.11;97071.84;4909423;29;20059;-61
2022/11/15 09:49:22;;;;;;;2.72;1.73;;;13.40;74.80;;;16.26;47.80;97069.75;4912526;29;20074;-61
2022/11/15 09:52:13;;;;;;;2.85;1.90;;;13.40;74.30;;;16.32;47.82;97073.47;4900376;29;20053;-61
2022/11/15 09:54:48;;;;;;;3.10;2.03;;;13.50;74.50;;;16.34;47.88;97072.25;4908226;29;20061;-61
2022/11/15 09:57:31;;;;;;;4.40;2.47;;;13.50;73.70;;;16.36;47.79;97072.00;4906413;29;20208;-60
2022/11/15 10:00:17;;;;;;;2.33;1.80;;;13.50;74.80;;;16.36;47.86;97072.00;4907106;29;20053;-60
2022/11/15 10:03:25;;;;;;;1.95;1.70;;;13.60;72.50;;;16.38;47.36;97074.47;4908018;29;20056;-60
2022/11/15 10:06:01;;;;;;;2.90;1.60;;;13.50;72.60;;;16.37;46.95;97070.16;4906730;29;20063;-60
2022/11/15 10:08:44;;;;;;;1.52;1.30;;;13.50;72.60;;;16.35;47.10;97067.69;4907201;29;20071;-60
2022/11/15 10:11:25;;;;;;;3.60;1.67;;;13.50;72.30;;;16.35;47.08;97067.69;4907854;29;20246;-60
2022/11/15 10:14:21;;;;;;;3.22;1.52;;;13.50;72.00;;;16.35;46.71;97062.31;4906115;29;20063;-60
2022/11/15 10:17:19;;;;;;;2.05;1.50;;;13.50;71.70;;;16.32;47.14;97062.72;4903419;29;20063;-60
2022/11/15 10:20:24;;;;;;;2.92;1.63;;;13.50;70.30;;;16.27;47.31;97060.69;4906928;29;20058;-60
2022/11/15 10:23:11;;;;;;;2.33;1.42;;;13.50;70.80;;;16.28;46.99;97053.44;4908014;29;20059;-60
2022/11/15 10:25:39;;;;;;;4.40;1.90;;;13.50;70.90;;;16.27;46.90;97059.88;4906436;29;20045;-60
2022/11/15 10:28:17;;;;;;;2.78;1.80;;;13.50;72.20;;;16.28;47.26;97043.50;4906010;29;20061;-60
2022/11/15 10:30:52;;;;;;;3.83;1.42;;;13.50;72.20;;;16.33;46.99;97046.41;4907754;29;20070;-61
2022/11/15 10:33:39;;;;;;;3.63;2.35;;;13.50;71.90;;;16.33;46.87;97041.03;4907276;29;20068;-61
2022/11/15 10:36:13;;;;;;;4.88;3.05;;;13.50;71.60;;;16.31;46.88;97043.09;4906558;29;20044;-60
2022/11/15 10:38:50;;;;;;;;;;;13.50;72.00;;;16.41;47.41;97033.78;4907564;29;20051;-61
2022/11/15 10:41:27;;;;;;;2.08;1.45;;;13.50;70.80;;;16.42;46.87;97038.09;4907309;29;19926;-61
2022/11/15 10:44:10;;;;;;;4.35;2.00;;;13.50;72.40;;;16.39;46.88;97035.84;4905936;29;20059;-61
2022/11/15 10:46:41;;;;;;;3.65;1.63;;;13.50;72.10;;;16.39;47.01;97027.78;4907383;29;20223;-61
2022/11/15 10:49:34;;;;;;;4.20;2.08;;;13.50;72.60;;;16.37;47.34;97024.50;4906251;29;20066;-61
2022/11/15 10:52:12;;;;;;;5.20;1.88;;;13.50;72.70;;;16.38;46.98;97018.91;4906346;29;20056;-61
2022/11/15 10:54:51;;;;;;;3.65;2.13;;;13.50;72.20;;;16.38;47.31;97018.06;4906567;29;20052;-60
2022/11/15 10:57:29;;;;;;;8.20;3.65;;;13.50;72.80;;;16.39;47.36;97014.38;4906944;29;20052;-60
2022/11/15 11:00:04;;;;;;;4.70;2.60;;;13.50;73.20;;;16.38;47.27;97010.88;4905659;29;20058;-60
2022/11/15 11:02:55;;;;;;;4.95;3.35;;;13.40;73.40;;;16.38;47.60;97004.66;4906105;29;20056;-60
2022/11/15 11:05:40;;;;;;;5.50;3.50;;;13.40;73.70;;;16.38;47.62;97008.19;4905393;29;20052;-60
2022/11/15 11:08:16;;;;;;;3.58;2.90;;;13.40;73.80;;;16.40;47.49;97005.25;4905837;29;20238;-60
2022/11/15 11:11:01;;;;;;;7.63;2.22;;;13.40;74.20;;;16.39;47.75;97006.31;4906863;29;20343;-60
2022/11/15 11:13:36;;;;;;;2.70;1.95;;;13.40;74.60;;;16.39;47.52;97000.94;4907224;29;20063;-61
2022/11/15 11:16:13;;;;;;;;;;;13.40;74.80;;;16.50;47.82;97008.31;4907010;29;20250;-61
2022/11/15 11:18:56;;;;;;;3.03;1.92;;;13.40;74.20;;;16.48;47.50;97003.16;4907031;29;20226;-61
2022/11/15 11:21:38;;;;;;;4.57;2.53;;;13.40;74.70;;;16.46;47.87;96999.00;4906756;29;20053;-61
2022/11/15 11:24:45;;;;;;;6.43;2.58;;;13.40;75.00;;;16.47;48.03;97001.50;4920987;29;20057;-59
2022/11/15 11:27:51;;;;;;;4.88;2.08;;;13.50;75.40;;;16.52;48.07;96993.63;4921527;29;20063;-61
2022/11/15 11:30:57;;;;;;;4.72;2.30;;;13.50;75.70;;;16.58;48.12;96991.94;4905377;29;20071;-60
2022/11/15 11:33:37;;;;;;;4.05;2.60;;;13.60;75.80;;;16.66;48.27;96983.63;4906731;29;20059;-60
2022/11/15 11:36:30;;;;;;;5.82;2.33;;;13.70;75.80;;;16.68;48.18;96978.03;4906346;29;20052;-60
2022/11/15 11:39:21;;;;;;;4.55;2.42;;;13.70;75.80;;;16.70;48.25;96970.59;4905680;29;20044;-60
2022/11/15 11:42:21;;;;;;;4.10;2.67;;;13.80;75.70;;;16.69;48.52;96960.84;4905111;29;20036;-60
2022/11/15 11:45:11;;;;;;;3.20;2.10;;;13.80;75.80;;;16.75;48.16;96954.63;4905224;29;20049;-60
2022/11/15 11:47:51;;;;;;;3.65;1.98;;;13.90;75.60;;;16.81;48.01;96960.97;4906223;29;20044;-60
2022/11/15 11:50:27;;;;;;;4.20;2.10;;;14.00;75.10;;;16.83;48.10;96956.28;4905483;29;20054;-60
2022/11/15 11:53:23;;;;;;;3.33;2.17;;;14.00;75.00;;;16.82;48.06;96952.75;4905089;29;20056;-60
2022/11/15 11:56:02;;;;;;;6.13;2.72;;;14.00;74.50;;;16.88;48.00;96957.25;4905060;29;20055;-60
2022/11/15 11:58:40;;;;;;;3.45;2.20;;;14.10;74.80;;;16.93;47.78;96943.16;4906545;29;20052;-60
2022/11/15 12:01:25;;;;;;;4.75;2.88;;;14.10;74.50;;;16.96;47.90;96947.28;4905760;29;20064;-61
2022/11/15 12:04:11;;;;;;;4.43;2.40;;;14.10;74.40;;;17.01;48.03;96934.00;4905261;29;20276;-61